< < Back
Terminal Aerodrome Forecast


Current Version              Previous Versions:   1  2  3  4  5  6  7  8  9  

Terminal Aerodrome Forecast

459
FTUS44 KHUN 252322
TAFHSV
TAF
KHSV 252322Z 2600/2624 23010KT P6SM VCSH BKN050
     FM260200 27010KT 5SM -RA BR OVC040
     FM260600 29010KT 5SM -RA BR OVC030
     FM261000 32015KT 5SM -RASN OVC015
     FM261200 32015G25KT 5SM -SN BR OVC020
     FM261500 32015G25KT P6SM OVC030
     FM262000 32010G20KT P6SM BKN040=



Latest METAR

184
SAUS80 KWBC 260600 RRD
MTRHSV
METAR KHSV 260553Z 29007KT 8SM -RA BKN014 OVC048 07/04 A2978 RMK AO2
RAB42 SLP083 LAST P0000 60000 T00720044 10111 20061 401501011
51002


USA.gov is the U.S. government's official web portal to all federal, state and local government web resources and services.